Flight Briefing

Flight
SQS15A
Departure Arrival
Tunggul Wulung (WIHL)
Click to view NOTAMS
Halim Perdanakusuma International (WIHH)
Click to view NOTAMS
Departure Time Arrival Time
09:00 09.30
Aircraft Distance
C208B 152.364
Departure METAR Arrival METAR
WIHH 180930Z 06015KT 6000 FEW020 33/22 Q1007 NOSIG
Route



Notes



Additional Data
View recent IFR Routes data



Data Courtesy of FlightAware